sensor_id;sensor_type;location;lat;lon;timestamp;temperature;humidity
21085;DHT22;34247;50.064;19.970;2023-04-06T00:00:20;19.60;19.20
21085;DHT22;34247;50.064;19.970;2023-04-06T00:01:27;19.50;19.20
21085;DHT22;34247;50.064;19.970;2023-04-06T00:02:31;19.50;19.20
21085;DHT22;34247;50.064;19.970;2023-04-06T00:03:38;19.50;19.30
21085;DHT22;34247;50.064;19.970;2023-04-06T00:04:42;19.50;19.30
21085;DHT22;34247;50.064;19.970;2023-04-06T00:05:47;19.50;19.30
21085;DHT22;34247;50.064;19.970;2023-04-06T00:06:52;19.50;19.30
21085;DHT22;34247;50.064;19.970;2023-04-06T00:07:58;19.50;19.30
21085;DHT22;34247;50.064;19.970;2023-04-06T00:09:04;19.50;19.30
21085;DHT22;34247;50.064;19.970;2023-04-06T00:10:13;19.50;19.30
21085;DHT22;34247;50.064;19.970;2023-04-06T00:11:18;19.50;19.40
21085;DHT22;34247;50.064;19.970;2023-04-06T00:12:22;19.50;19.40
21085;DHT22;34247;50.064;19.970;2023-04-06T00:13:30;19.50;19.40
21085;DHT22;34247;50.064;19.970;2023-04-06T00:14:33;19.50;19.40
21085;DHT22;34247;50.064;19.970;2023-04-06T00:15:38;19.50;19.40
21085;DHT22;34247;50.064;19.970;2023-04-06T00:16:42;19.50;19.40
21085;DHT22;34247;50.064;19.970;2023-04-06T00:17:46;19.50;19.40
21085;DHT22;34247;50.064;19.970;2023-04-06T00:18:50;19.50;19.40
21085;DHT22;34247;50.064;19.970;2023-04-06T00:19:56;19.50;19.40
21085;DHT22;34247;50.064;19.970;2023-04-06T00:21:03;19.50;19.40
21085;DHT22;34247;50.064;19.970;2023-04-06T00:22:11;19.50;19.50
21085;DHT22;34247;50.064;19.970;2023-04-06T00:23:17;19.50;19.50
21085;DHT22;34247;50.064;19.970;2023-04-06T00:24:24;19.50;19.50
21085;DHT22;34247;50.064;19.970;2023-04-06T00:25:27;19.50;19.50
21085;DHT22;34247;50.064;19.970;2023-04-06T00:26:31;19.40;19.50
21085;DHT22;34247;50.064;19.970;2023-04-06T00:27:35;19.50;19.60
21085;DHT22;34247;50.064;19.970;2023-04-06T00:28:40;19.40;19.50
21085;DHT22;34247;50.064;19.970;2023-04-06T00:29:44;19.40;19.50
21085;DHT22;34247;50.064;19.970;2023-04-06T00:30:53;19.40;19.60
21085;DHT22;34247;50.064;19.970;2023-04-06T00:31:59;19.40;19.60
21085;DHT22;34247;50.064;19.970;2023-04-06T00:33:04;19.40;19.60
21085;DHT22;34247;50.064;19.970;2023-04-06T00:34:13;19.40;19.60
21085;DHT22;34247;50.064;19.970;2023-04-06T00:35:19;19.40;19.60
21085;DHT22;34247;50.064;19.970;2023-04-06T00:36:24;19.40;19.60
21085;DHT22;34247;50.064;19.970;2023-04-06T00:37:28;19.40;19.60
21085;DHT22;34247;50.064;19.970;2023-04-06T00:38:35;19.40;19.70
21085;DHT22;34247;50.064;19.970;2023-04-06T00:39:46;19.40;19.60
21085;DHT22;34247;50.064;19.970;2023-04-06T00:40:50;19.40;19.60
21085;DHT22;34247;50.064;19.970;2023-04-06T00:41:55;19.40;19.60
21085;DHT22;34247;50.064;19.970;2023-04-06T00:43:03;19.40;19.70
21085;DHT22;34247;50.064;19.970;2023-04-06T00:44:13;19.40;19.70
21085;DHT22;34247;50.064;19.970;2023-04-06T00:45:22;19.40;19.70
21085;DHT22;34247;50.064;19.970;2023-04-06T00:46:26;19.40;19.70
21085;DHT22;34247;50.064;19.970;2023-04-06T00:47:33;19.40;19.70
21085;DHT22;34247;50.064;19.970;2023-04-06T00:48:37;19.40;19.70
21085;DHT22;34247;50.064;19.970;2023-04-06T00:49:43;19.40;19.70
21085;DHT22;34247;50.064;19.970;2023-04-06T00:50:49;19.40;19.90
21085;DHT22;34247;50.064;19.970;2023-04-06T00:51:54;19.40;19.80
21085;DHT22;34247;50.064;19.970;2023-04-06T00:52:59;19.30;19.70
21085;DHT22;34247;50.064;19.970;2023-04-06T00:54:06;19.30;19.70
21085;DHT22;34247;50.064;19.970;2023-04-06T00:55:17;19.30;19.80
21085;DHT22;34247;50.064;19.970;2023-04-06T00:56:21;19.30;19.80
21085;DHT22;34247;50.064;19.970;2023-04-06T00:57:26;19.30;19.80
21085;DHT22;34247;50.064;19.970;2023-04-06T00:58:30;19.30;19.90
21085;DHT22;34247;50.064;19.970;2023-04-06T00:59:34;19.30;20.00
21085;DHT22;34247;50.064;19.970;2023-04-06T01:00:41;19.30;20.00
21085;DHT22;34247;50.064;19.970;2023-04-06T01:01:47;19.30;20.00
21085;DHT22;34247;50.064;19.970;2023-04-06T01:02:52;19.30;20.10
21085;DHT22;34247;50.064;19.970;2023-04-06T01:03:56;19.30;20.10
21085;DHT22;34247;50.064;19.970;2023-04-06T01:05:01;19.30;20.10
21085;DHT22;34247;50.064;19.970;2023-04-06T01:06:10;19.30;20.10
21085;DHT22;34247;50.064;19.970;2023-04-06T01:07:14;19.30;20.10
21085;DHT22;34247;50.064;19.970;2023-04-06T01:08:20;19.30;20.10
21085;DHT22;34247;50.064;19.970;2023-04-06T01:09:29;19.30;20.20
21085;DHT22;34247;50.064;19.970;2023-04-06T01:10:34;19.20;20.10
21085;DHT22;34247;50.064;19.970;2023-04-06T01:11:41;19.20;20.10
21085;DHT22;34247;50.064;19.970;2023-04-06T01:12:49;19.20;20.20
21085;DHT22;34247;50.064;19.970;2023-04-06T01:13:54;19.20;20.30
21085;DHT22;34247;50.064;19.970;2023-04-06T01:14:59;19.30;20.40
21085;DHT22;34247;50.064;19.970;2023-04-06T01:16:03;19.30;20.30
21085;DHT22;34247;50.064;19.970;2023-04-06T01:17:15;19.30;20.30
21085;DHT22;34247;50.064;19.970;2023-04-06T01:18:28;19.20;20.10
21085;DHT22;34247;50.064;19.970;2023-04-06T01:19:33;19.20;20.10
21085;DHT22;34247;50.064;19.970;2023-04-06T01:20:37;19.40;20.30
21085;DHT22;34247;50.064;19.970;2023-04-06T01:21:44;19.30;20.10
21085;DHT22;34247;50.064;19.970;2023-04-06T01:22:48;19.30;20.10
21085;DHT22;34247;50.064;19.970;2023-04-06T01:23:52;19.30;20.10
21085;DHT22;34247;50.064;19.970;2023-04-06T01:24:59;19.30;20.10
21085;DHT22;34247;50.064;19.970;2023-04-06T01:26:03;19.20;20.10
21085;DHT22;34247;50.064;19.970;2023-04-06T01:27:16;19.20;20.10
21085;DHT22;34247;50.064;19.970;2023-04-06T01:28:22;19.10;20.10
21085;DHT22;34247;50.064;19.970;2023-04-06T01:29:29;19.10;20.20
21085;DHT22;34247;50.064;19.970;2023-04-06T01:30:36;19.10;20.20
21085;DHT22;34247;50.064;19.970;2023-04-06T01:31:40;19.10;20.40
21085;DHT22;34247;50.064;19.970;2023-04-06T01:32:44;19.10;20.40
21085;DHT22;34247;50.064;19.970;2023-04-06T01:33:54;19.10;20.40
21085;DHT22;34247;50.064;19.970;2023-04-06T01:34:58;19.10;20.40
21085;DHT22;34247;50.064;19.970;2023-04-06T01:36:03;19.10;20.60
21085;DHT22;34247;50.064;19.970;2023-04-06T01:37:14;19.10;20.50
21085;DHT22;34247;50.064;19.970;2023-04-06T01:38:19;19.00;20.50
21085;DHT22;34247;50.064;19.970;2023-04-06T01:39:26;19.10;20.60
21085;DHT22;34247;50.064;19.970;2023-04-06T01:40:30;19.00;20.50
21085;DHT22;34247;50.064;19.970;2023-04-06T01:41:35;19.00;20.50
21085;DHT22;34247;50.064;19.970;2023-04-06T01:42:39;19.00;20.80
21085;DHT22;34247;50.064;19.970;2023-04-06T01:43:44;19.00;20.70
21085;DHT22;34247;50.064;19.970;2023-04-06T01:44:50;19.00;20.70
21085;DHT22;34247;50.064;19.970;2023-04-06T01:45:54;19.00;20.90
21085;DHT22;34247;50.064;19.970;2023-04-06T01:47:00;19.00;20.80
21085;DHT22;34247;50.064;19.970;2023-04-06T01:48:04;19.00;20.70
21085;DHT22;34247;50.064;19.970;2023-04-06T01:49:15;19.00;20.70
21085;DHT22;34247;50.064;19.970;2023-04-06T01:50:20;18.90;20.70
21085;DHT22;34247;50.064;19.970;2023-04-06T01:51:23;18.90;20.80
21085;DHT22;34247;50.064;19.970;2023-04-06T01:52:29;18.90;20.80
21085;DHT22;34247;50.064;19.970;2023-04-06T01:53:36;18.90;20.80
21085;DHT22;34247;50.064;19.970;2023-04-06T01:54:40;18.90;20.90
21085;DHT22;34247;50.064;19.970;2023-04-06T01:55:44;18.80;21.00
21085;DHT22;34247;50.064;19.970;2023-04-06T01:56:48;18.90;21.00
21085;DHT22;34247;50.064;19.970;2023-04-06T01:57:53;18.90;20.90
21085;DHT22;34247;50.064;19.970;2023-04-06T01:58:57;18.80;21.00
21085;DHT22;34247;50.064;19.970;2023-04-06T02:00:02;18.80;21.00
21085;DHT22;34247;50.064;19.970;2023-04-06T02:01:11;18.80;21.00
21085;DHT22;34247;50.064;19.970;2023-04-06T02:02:15;18.80;21.00
21085;DHT22;34247;50.064;19.970;2023-04-06T02:03:19;18.70;21.00
21085;DHT22;34247;50.064;19.970;2023-04-06T02:04:23;18.70;21.00
21085;DHT22;34247;50.064;19.970;2023-04-06T02:05:31;18.80;21.10
21085;DHT22;34247;50.064;19.970;2023-04-06T02:06:41;18.80;21.00
21085;DHT22;34247;50.064;19.970;2023-04-06T02:07:45;18.80;21.00
21085;DHT22;34247;50.064;19.970;2023-04-06T02:08:49;18.80;21.10
21085;DHT22;34247;50.064;19.970;2023-04-06T02:09:54;18.80;21.00
21085;DHT22;34247;50.064;19.970;2023-04-06T02:11:02;18.70;20.90
21085;DHT22;34247;50.064;19.970;2023-04-06T02:12:13;18.70;21.00
21085;DHT22;34247;50.064;19.970;2023-04-06T02:13:17;18.70;20.90
21085;DHT22;34247;50.064;19.970;2023-04-06T02:14:23;18.70;21.00
21085;DHT22;34247;50.064;19.970;2023-04-06T02:15:28;18.70;21.00
21085;DHT22;34247;50.064;19.970;2023-04-06T02:16:32;18.80;21.10
21085;DHT22;34247;50.064;19.970;2023-04-06T02:17:36;18.70;20.90
21085;DHT22;34247;50.064;19.970;2023-04-06T02:18:40;18.80;21.10
21085;DHT22;34247;50.064;19.970;2023-04-06T02:19:44;18.80;21.00
21085;DHT22;34247;50.064;19.970;2023-04-06T02:20:48;18.80;21.10
21085;DHT22;34247;50.064;19.970;2023-04-06T02:21:51;18.70;21.00
21085;DHT22;34247;50.064;19.970;2023-04-06T02:22:58;18.80;21.00
21085;DHT22;34247;50.064;19.970;2023-04-06T02:24:02;18.70;20.90
21085;DHT22;34247;50.064;19.970;2023-04-06T02:25:11;18.70;21.00
21085;DHT22;34247;50.064;19.970;2023-04-06T02:26:15;18.70;21.00
21085;DHT22;34247;50.064;19.970;2023-04-06T02:27:19;18.70;20.90
21085;DHT22;34247;50.064;19.970;2023-04-06T02:28:23;18.60;21.00
21085;DHT22;34247;50.064;19.970;2023-04-06T02:29:27;18.70;21.10
21085;DHT22;34247;50.064;19.970;2023-04-06T02:30:31;18.70;21.10
21085;DHT22;34247;50.064;19.970;2023-04-06T02:31:36;18.70;21.00
21085;DHT22;34247;50.064;19.970;2023-04-06T02:32:41;18.70;20.90
21085;DHT22;34247;50.064;19.970;2023-04-06T02:33:45;18.70;20.90
21085;DHT22;34247;50.064;19.970;2023-04-06T02:34:49;18.60;21.40
21085;DHT22;34247;50.064;19.970;2023-04-06T02:35:53;18.60;20.90
21085;DHT22;34247;50.064;19.970;2023-04-06T02:37:01;18.70;21.00
21085;DHT22;34247;50.064;19.970;2023-04-06T02:38:10;18.80;20.90
21085;DHT22;34247;50.064;19.970;2023-04-06T02:39:15;18.70;20.80
21085;DHT22;34247;50.064;19.970;2023-04-06T02:40:19;18.70;20.80
21085;DHT22;34247;50.064;19.970;2023-04-06T02:41:23;18.70;20.90
21085;DHT22;34247;50.064;19.970;2023-04-06T02:42:29;18.70;20.80
21085;DHT22;34247;50.064;19.970;2023-04-06T02:43:33;18.60;20.70
21085;DHT22;34247;50.064;19.970;2023-04-06T02:44:39;18.60;20.80
21085;DHT22;34247;50.064;19.970;2023-04-06T02:45:43;18.70;20.90
21085;DHT22;34247;50.064;19.970;2023-04-06T02:46:46;18.60;20.80
21085;DHT22;34247;50.064;19.970;2023-04-06T02:47:50;18.60;20.90
21085;DHT22;34247;50.064;19.970;2023-04-06T02:48:54;18.60;20.90
21085;DHT22;34247;50.064;19.970;2023-04-06T02:49:58;18.60;20.90
21085;DHT22;34247;50.064;19.970;2023-04-06T02:51:02;18.60;20.90
21085;DHT22;34247;50.064;19.970;2023-04-06T02:52:13;18.50;20.90
21085;DHT22;34247;50.064;19.970;2023-04-06T02:53:16;18.50;21.00
21085;DHT22;34247;50.064;19.970;2023-04-06T02:54:26;18.50;20.90
21085;DHT22;34247;50.064;19.970;2023-04-06T02:55:30;18.50;20.90
21085;DHT22;34247;50.064;19.970;2023-04-06T02:56:42;18.50;20.90
21085;DHT22;34247;50.064;19.970;2023-04-06T02:57:47;18.40;20.90
21085;DHT22;34247;50.064;19.970;2023-04-06T02:59:56;18.40;20.50
21085;DHT22;34247;50.064;19.970;2023-04-06T03:01:00;18.40;21.00
21085;DHT22;34247;50.064;19.970;2023-04-06T03:02:13;18.40;21.00
21085;DHT22;34247;50.064;19.970;2023-04-06T03:03:17;18.50;21.00
21085;DHT22;34247;50.064;19.970;2023-04-06T03:04:21;18.40;20.80
21085;DHT22;34247;50.064;19.970;2023-04-06T03:05:26;18.40;20.80
21085;DHT22;34247;50.064;19.970;2023-04-06T03:06:30;18.40;20.80
21085;DHT22;34247;50.064;19.970;2023-04-06T03:07:33;18.40;20.90
21085;DHT22;34247;50.064;19.970;2023-04-06T03:08:37;18.40;20.80
21085;DHT22;34247;50.064;19.970;2023-04-06T03:09:41;18.50;20.80
21085;DHT22;34247;50.064;19.970;2023-04-06T03:10:45;18.40;20.70
21085;DHT22;34247;50.064;19.970;2023-04-06T03:11:49;18.40;20.80
21085;DHT22;34247;50.064;19.970;2023-04-06T03:12:53;18.50;20.80
21085;DHT22;34247;50.064;19.970;2023-04-06T03:13:57;18.50;20.70
21085;DHT22;34247;50.064;19.970;2023-04-06T03:15:03;18.50;20.70
21085;DHT22;34247;50.064;19.970;2023-04-06T03:16:11;18.50;20.60
21085;DHT22;34247;50.064;19.970;2023-04-06T03:17:15;18.50;20.70
21085;DHT22;34247;50.064;19.970;2023-04-06T03:18:24;18.40;20.60
21085;DHT22;34247;50.064;19.970;2023-04-06T03:19:28;18.40;20.60
21085;DHT22;34247;50.064;19.970;2023-04-06T03:20:32;18.30;20.60
21085;DHT22;34247;50.064;19.970;2023-04-06T03:21:36;18.30;20.70
21085;DHT22;34247;50.064;19.970;2023-04-06T03:22:40;18.30;20.70
21085;DHT22;34247;50.064;19.970;2023-04-06T03:23:44;18.30;20.70
21085;DHT22;34247;50.064;19.970;2023-04-06T03:24:49;18.30;20.80
21085;DHT22;34247;50.064;19.970;2023-04-06T03:25:53;18.30;20.80
21085;DHT22;34247;50.064;19.970;2023-04-06T03:26:57;18.30;20.90
21085;DHT22;34247;50.064;19.970;2023-04-06T03:28:01;18.30;20.80
21085;DHT22;34247;50.064;19.970;2023-04-06T03:29:07;18.20;20.80
21085;DHT22;34247;50.064;19.970;2023-04-06T03:30:13;18.30;21.00
21085;DHT22;34247;50.064;19.970;2023-04-06T03:31:16;18.30;20.90
21085;DHT22;34247;50.064;19.970;2023-04-06T03:32:20;18.30;21.00
21085;DHT22;34247;50.064;19.970;2023-04-06T03:33:24;18.30;21.00
21085;DHT22;34247;50.064;19.970;2023-04-06T03:34:30;18.30;21.00
21085;DHT22;34247;50.064;19.970;2023-04-06T03:35:34;18.30;21.00
21085;DHT22;34247;50.064;19.970;2023-04-06T03:36:40;18.30;21.10
21085;DHT22;34247;50.064;19.970;2023-04-06T03:37:44;18.30;20.90
21085;DHT22;34247;50.064;19.970;2023-04-06T03:38:48;18.30;20.90
21085;DHT22;34247;50.064;19.970;2023-04-06T03:39:52;18.30;20.90
21085;DHT22;34247;50.064;19.970;2023-04-06T03:40:58;18.30;20.90
21085;DHT22;34247;50.064;19.970;2023-04-06T03:42:03;18.30;20.90
21085;DHT22;34247;50.064;19.970;2023-04-06T03:43:12;18.30;20.90
21085;DHT22;34247;50.064;19.970;2023-04-06T03:44:17;18.30;20.90
21085;DHT22;34247;50.064;19.970;2023-04-06T03:45:21;18.20;20.90
21085;DHT22;34247;50.064;19.970;2023-04-06T03:46:25;18.20;20.90
21085;DHT22;34247;50.064;19.970;2023-04-06T03:47:30;18.30;21.00
21085;DHT22;34247;50.064;19.970;2023-04-06T03:48:34;18.20;21.00
21085;DHT22;34247;50.064;19.970;2023-04-06T03:49:39;18.30;21.00
21085;DHT22;34247;50.064;19.970;2023-04-06T03:50:43;18.40;21.00
21085;DHT22;34247;50.064;19.970;2023-04-06T03:51:48;18.40;20.90
21085;DHT22;34247;50.064;19.970;2023-04-06T03:52:52;18.30;20.80
21085;DHT22;34247;50.064;19.970;2023-04-06T03:54:11;18.30;20.80
21085;DHT22;34247;50.064;19.970;2023-04-06T03:55:19;18.30;20.80
21085;DHT22;34247;50.064;19.970;2023-04-06T03:56:23;18.40;20.90
21085;DHT22;34247;50.064;19.970;2023-04-06T03:57:31;18.40;20.90
21085;DHT22;34247;50.064;19.970;2023-04-06T03:58:35;18.40;20.80
21085;DHT22;34247;50.064;19.970;2023-04-06T03:59:39;18.40;20.80
21085;DHT22;34247;50.064;19.970;2023-04-06T04:00:43;18.40;20.80
21085;DHT22;34247;50.064;19.970;2023-04-06T04:01:46;18.30;20.70
21085;DHT22;34247;50.064;19.970;2023-04-06T04:02:50;18.30;20.70
21085;DHT22;34247;50.064;19.970;2023-04-06T04:03:54;18.40;20.90
21085;DHT22;34247;50.064;19.970;2023-04-06T04:05:00;18.40;20.80
21085;DHT22;34247;50.064;19.970;2023-04-06T04:06:04;18.40;20.80
21085;DHT22;34247;50.064;19.970;2023-04-06T04:07:13;18.40;20.80
21085;DHT22;34247;50.064;19.970;2023-04-06T04:08:17;18.40;20.80
21085;DHT22;34247;50.064;19.970;2023-04-06T04:09:21;18.40;20.70
21085;DHT22;34247;50.064;19.970;2023-04-06T04:10:25;18.40;20.80
21085;DHT22;34247;50.064;19.970;2023-04-06T04:11:31;18.40;20.90
21085;DHT22;34247;50.064;19.970;2023-04-06T04:12:35;18.40;20.80
21085;DHT22;34247;50.064;19.970;2023-04-06T04:13:42;18.40;20.80
21085;DHT22;34247;50.064;19.970;2023-04-06T04:14:47;18.30;20.80
21085;DHT22;34247;50.064;19.970;2023-04-06T04:15:51;18.40;20.90
21085;DHT22;34247;50.064;19.970;2023-04-06T04:16:56;18.40;20.90
21085;DHT22;34247;50.064;19.970;2023-04-06T04:18:00;18.40;20.80
21085;DHT22;34247;50.064;19.970;2023-04-06T04:19:07;18.40;20.80
21085;DHT22;34247;50.064;19.970;2023-04-06T04:20:14;18.40;20.80
21085;DHT22;34247;50.064;19.970;2023-04-06T04:21:20;18.40;20.80
21085;DHT22;34247;50.064;19.970;2023-04-06T04:22:24;18.30;20.70
21085;DHT22;34247;50.064;19.970;2023-04-06T04:23:28;18.30;20.80
21085;DHT22;34247;50.064;19.970;2023-04-06T04:24:39;18.30;20.80
21085;DHT22;34247;50.064;19.970;2023-04-06T04:26:02;18.30;20.80
21085;DHT22;34247;50.064;19.970;2023-04-06T04:28:13;18.30;20.80
21085;DHT22;34247;50.064;19.970;2023-04-06T04:29:40;18.30;20.80
21085;DHT22;34247;50.064;19.970;2023-04-06T04:31:04;18.40;20.90
21085;DHT22;34247;50.064;19.970;2023-04-06T04:32:36;18.40;20.80
21085;DHT22;34247;50.064;19.970;2023-04-06T04:33:46;18.40;20.80
21085;DHT22;34247;50.064;19.970;2023-04-06T04:34:58;18.30;20.80
21085;DHT22;34247;50.064;19.970;2023-04-06T04:36:13;18.30;20.80
21085;DHT22;34247;50.064;19.970;2023-04-06T04:37:56;18.30;20.80
21085;DHT22;34247;50.064;19.970;2023-04-06T04:39:04;18.30;20.90
21085;DHT22;34247;50.064;19.970;2023-04-06T04:40:22;18.30;20.90
21085;DHT22;34247;50.064;19.970;2023-04-06T04:41:26;18.30;20.90
21085;DHT22;34247;50.064;19.970;2023-04-06T04:42:57;18.30;20.90
21085;DHT22;34247;50.064;19.970;2023-04-06T04:44:30;18.30;20.90
21085;DHT22;34247;50.064;19.970;2023-04-06T04:46:23;18.40;21.00
21085;DHT22;34247;50.064;19.970;2023-04-06T04:47:33;18.40;20.90
21085;DHT22;34247;50.064;19.970;2023-04-06T04:48:51;18.40;20.90
21085;DHT22;34247;50.064;19.970;2023-04-06T04:50:02;18.40;20.90
21085;DHT22;34247;50.064;19.970;2023-04-06T04:51:21;18.50;20.90
21085;DHT22;34247;50.064;19.970;2023-04-06T04:52:55;18.50;20.90
21085;DHT22;34247;50.064;19.970;2023-04-06T04:54:15;18.50;20.90
21085;DHT22;34247;50.064;19.970;2023-04-06T04:55:25;18.50;20.90
21085;DHT22;34247;50.064;19.970;2023-04-06T04:56:48;18.50;20.80
21085;DHT22;34247;50.064;19.970;2023-04-06T04:58:14;18.50;20.80
21085;DHT22;34247;50.064;19.970;2023-04-06T04:59:26;18.50;20.80
21085;DHT22;34247;50.064;19.970;2023-04-06T05:00:39;18.60;20.90
21085;DHT22;34247;50.064;19.970;2023-04-06T05:01:45;18.60;20.80
21085;DHT22;34247;50.064;19.970;2023-04-06T05:03:04;18.60;20.80
21085;DHT22;34247;50.064;19.970;2023-04-06T05:04:35;18.60;20.80
21085;DHT22;34247;50.064;19.970;2023-04-06T05:05:45;18.60;20.80
21085;DHT22;34247;50.064;19.970;2023-04-06T05:07:22;18.70;20.80
21085;DHT22;34247;50.064;19.970;2023-04-06T05:08:44;18.70;20.70
21085;DHT22;34247;50.064;19.970;2023-04-06T05:09:55;18.80;20.70
21085;DHT22;34247;50.064;19.970;2023-04-06T05:11:03;18.80;20.60
21085;DHT22;34247;50.064;19.970;2023-04-06T05:13:13;18.70;20.60
21085;DHT22;34247;50.064;19.970;2023-04-06T05:14:22;18.80;20.60
21085;DHT22;34247;50.064;19.970;2023-04-06T05:15:28;18.80;20.50
21085;DHT22;34247;50.064;19.970;2023-04-06T05:16:41;18.80;20.60
21085;DHT22;34247;50.064;19.970;2023-04-06T05:18:14;18.80;20.60
21085;DHT22;34247;50.064;19.970;2023-04-06T05:19:31;18.90;20.60
21085;DHT22;34247;50.064;19.970;2023-04-06T05:20:40;18.90;20.60
21085;DHT22;34247;50.064;19.970;2023-04-06T05:21:49;18.90;20.60
21085;DHT22;34247;50.064;19.970;2023-04-06T05:23:33;18.90;20.60
21085;DHT22;34247;50.064;19.970;2023-04-06T05:24:56;18.90;20.60
21085;DHT22;34247;50.064;19.970;2023-04-06T05:26:23;18.90;20.60
21085;DHT22;34247;50.064;19.970;2023-04-06T05:27:47;19.00;20.60
21085;DHT22;34247;50.064;19.970;2023-04-06T05:29:15;19.00;20.60
21085;DHT22;34247;50.064;19.970;2023-04-06T05:30:52;19.10;20.60
21085;DHT22;34247;50.064;19.970;2023-04-06T05:32:01;19.20;20.50
21085;DHT22;34247;50.064;19.970;2023-04-06T05:33:36;19.20;20.50
21085;DHT22;34247;50.064;19.970;2023-04-06T05:34:41;19.20;20.50
21085;DHT22;34247;50.064;19.970;2023-04-06T05:35:48;19.20;20.50
21085;DHT22;34247;50.064;19.970;2023-04-06T05:36:55;19.20;20.50
21085;DHT22;34247;50.064;19.970;2023-04-06T05:38:15;19.30;20.50
21085;DHT22;34247;50.064;19.970;2023-04-06T05:39:19;19.40;20.30
21085;DHT22;34247;50.064;19.970;2023-04-06T05:40:23;19.40;20.30
21085;DHT22;34247;50.064;19.970;2023-04-06T05:41:29;19.40;20.30
21085;DHT22;34247;50.064;19.970;2023-04-06T05:42:41;19.40;20.20
21085;DHT22;34247;50.064;19.970;2023-04-06T05:43:51;19.50;20.20
21085;DHT22;34247;50.064;19.970;2023-04-06T05:44:57;19.50;20.00
21085;DHT22;34247;50.064;19.970;2023-04-06T05:46:01;19.50;20.10
21085;DHT22;34247;50.064;19.970;2023-04-06T05:47:17;19.50;20.10
21085;DHT22;34247;50.064;19.970;2023-04-06T05:48:21;19.50;20.00
21085;DHT22;34247;50.064;19.970;2023-04-06T05:49:27;19.50;20.00
21085;DHT22;34247;50.064;19.970;2023-04-06T05:50:35;19.50;20.00
21085;DHT22;34247;50.064;19.970;2023-04-06T05:51:58;19.50;20.00
21085;DHT22;34247;50.064;19.970;2023-04-06T05:53:18;19.50;20.00
21085;DHT22;34247;50.064;19.970;2023-04-06T05:54:39;19.60;20.10
21085;DHT22;34247;50.064;19.970;2023-04-06T05:55:55;19.70;19.90
21085;DHT22;34247;50.064;19.970;2023-04-06T05:57:02;19.70;19.80
21085;DHT22;34247;50.064;19.970;2023-04-06T05:58:20;19.70;19.70
21085;DHT22;34247;50.064;19.970;2023-04-06T05:59:28;19.70;19.70
21085;DHT22;34247;50.064;19.970;2023-04-06T06:00:35;19.70;19.80
21085;DHT22;34247;50.064;19.970;2023-04-06T06:01:55;19.80;19.70
21085;DHT22;34247;50.064;19.970;2023-04-06T06:03:09;19.80;19.50
21085;DHT22;34247;50.064;19.970;2023-04-06T06:04:19;19.90;19.50
21085;DHT22;34247;50.064;19.970;2023-04-06T06:05:23;19.90;19.50
21085;DHT22;34247;50.064;19.970;2023-04-06T06:06:45;19.90;19.50
21085;DHT22;34247;50.064;19.970;2023-04-06T06:07:51;19.80;19.50
21085;DHT22;34247;50.064;19.970;2023-04-06T06:08:55;19.80;19.50
21085;DHT22;34247;50.064;19.970;2023-04-06T06:10:02;19.80;19.50
21085;DHT22;34247;50.064;19.970;2023-04-06T06:11:11;19.90;19.40
21085;DHT22;34247;50.064;19.970;2023-04-06T06:12:24;19.90;19.40
21085;DHT22;34247;50.064;19.970;2023-04-06T06:13:28;19.90;19.40
21085;DHT22;34247;50.064;19.970;2023-04-06T06:14:37;19.90;19.40
21085;DHT22;34247;50.064;19.970;2023-04-06T06:15:55;20.00;19.20
21085;DHT22;34247;50.064;19.970;2023-04-06T06:17:01;20.00;19.00
21085;DHT22;34247;50.064;19.970;2023-04-06T06:18:10;20.00;19.00
21085;DHT22;34247;50.064;19.970;2023-04-06T06:19:26;20.10;18.90
21085;DHT22;34247;50.064;19.970;2023-04-06T06:20:32;20.10;18.90
21085;DHT22;34247;50.064;19.970;2023-04-06T06:21:45;20.20;18.80
21085;DHT22;34247;50.064;19.970;2023-04-06T06:22:49;20.10;18.90
21085;DHT22;34247;50.064;19.970;2023-04-06T06:23:53;20.20;18.60
21085;DHT22;34247;50.064;19.970;2023-04-06T06:24:57;20.10;18.70
21085;DHT22;34247;50.064;19.970;2023-04-06T06:26:02;20.10;18.90
21085;DHT22;34247;50.064;19.970;2023-04-06T06:27:06;20.00;19.00
21085;DHT22;34247;50.064;19.970;2023-04-06T06:28:24;20.00;19.00
21085;DHT22;34247;50.064;19.970;2023-04-06T06:29:28;20.00;19.20
21085;DHT22;34247;50.064;19.970;2023-04-06T06:30:32;20.00;18.90
21085;DHT22;34247;50.064;19.970;2023-04-06T06:31:36;20.10;18.90
21085;DHT22;34247;50.064;19.970;2023-04-06T06:32:40;20.20;18.80
21085;DHT22;34247;50.064;19.970;2023-04-06T06:33:45;20.20;18.70
21085;DHT22;34247;50.064;19.970;2023-04-06T06:34:53;20.10;18.70
21085;DHT22;34247;50.064;19.970;2023-04-06T06:35:57;20.20;18.90
21085;DHT22;34247;50.064;19.970;2023-04-06T06:37:01;20.20;18.70
21085;DHT22;34247;50.064;19.970;2023-04-06T06:38:07;20.20;18.70
21085;DHT22;34247;50.064;19.970;2023-04-06T06:39:11;20.10;18.80
21085;DHT22;34247;50.064;19.970;2023-04-06T06:40:15;20.10;18.90
21085;DHT22;34247;50.064;19.970;2023-04-06T06:41:21;20.00;18.90
21085;DHT22;34247;50.064;19.970;2023-04-06T06:42:27;20.10;18.90
21085;DHT22;34247;50.064;19.970;2023-04-06T06:43:31;20.00;18.90
21085;DHT22;34247;50.064;19.970;2023-04-06T06:44:35;20.10;19.00
21085;DHT22;34247;50.064;19.970;2023-04-06T06:45:39;20.00;19.00
21085;DHT22;34247;50.064;19.970;2023-04-06T06:46:48;20.00;19.10
21085;DHT22;34247;50.064;19.970;2023-04-06T06:47:51;20.00;19.10
21085;DHT22;34247;50.064;19.970;2023-04-06T06:48:58;20.00;19.00
21085;DHT22;34247;50.064;19.970;2023-04-06T06:50:02;20.00;18.90
21085;DHT22;34247;50.064;19.970;2023-04-06T06:51:06;20.10;18.80
21085;DHT22;34247;50.064;19.970;2023-04-06T06:52:13;20.20;18.80
21085;DHT22;34247;50.064;19.970;2023-04-06T06:53:19;20.30;18.70
21085;DHT22;34247;50.064;19.970;2023-04-06T06:54:28;20.30;18.60
21085;DHT22;34247;50.064;19.970;2023-04-06T06:55:33;20.30;18.70
21085;DHT22;34247;50.064;19.970;2023-04-06T06:56:38;20.30;18.70
21085;DHT22;34247;50.064;19.970;2023-04-06T06:57:43;20.20;18.70
21085;DHT22;34247;50.064;19.970;2023-04-06T06:58:49;20.20;18.70
21085;DHT22;34247;50.064;19.970;2023-04-06T06:59:53;20.20;18.70
21085;DHT22;34247;50.064;19.970;2023-04-06T07:00:58;20.30;18.70
21085;DHT22;34247;50.064;19.970;2023-04-06T07:02:03;20.20;18.60
21085;DHT22;34247;50.064;19.970;2023-04-06T07:03:07;20.30;18.70
21085;DHT22;34247;50.064;19.970;2023-04-06T07:04:10;20.20;18.70
21085;DHT22;34247;50.064;19.970;2023-04-06T07:05:15;20.30;18.80